Time;durP1;ratioP1;P1;durP2;ratioP2;P2;SDS_P1;SDS_P2;PMS_P1;PMS_P2;Temp;Humidity;BMP_temperature;BMP_pressure;BME280_temperature;BME280_humidity;BME280_pressure;Samples;Min_cycle;Max_cycle;Signal;HPM_P1;HPM_P2
2021/03/07 00:02:03;;;;;;;9.27;8.30;;;;;;;;;;5064301;28;20210;-72
2021/03/07 00:04:29;;;;;;;8.88;7.47;;;;;;;;;;5058732;28;20228;-71
2021/03/07 00:06:55;;;;;;;7.40;6.47;;;;;;;;;;5056903;28;20185;-71
2021/03/07 00:09:21;;;;;;;7.97;7.20;;;;;;;;;;5060935;28;20228;-71
2021/03/07 00:11:47;;;;;;;8.88;7.85;;;;;;;;;;5053314;28;20178;-71
2021/03/07 00:14:13;;;;;;;8.63;7.55;;;;;;;;;;5049698;28;20184;-71
2021/03/07 00:16:39;;;;;;;10.67;7.17;;;;;;;;;;5058862;28;20182;-71
2021/03/07 00:19:05;;;;;;;7.30;6.60;;;;;;;;;;5053706;28;20470;-71
2021/03/07 00:21:31;;;;;;;9.82;8.15;;;;;;;;;;5056713;28;20889;-71
2021/03/07 00:23:57;;;;;;;7.78;7.05;;;;;;;;;;5063066;28;20283;-72
2021/03/07 00:26:23;;;;;;;7.43;6.60;;;;;;;;;;5052198;28;20185;-72
2021/03/07 00:28:48;;;;;;;7.57;6.72;;;;;;;;;;5060009;28;20510;-72
2021/03/07 00:31:14;;;;;;;8.03;7.23;;;;;;;;;;5053060;28;20637;-72
2021/03/07 00:33:40;;;;;;;7.20;6.50;;;;;;;;;;5060652;28;20503;-72
2021/03/07 00:36:06;;;;;;;7.17;6.47;;;;;;;;;;5064494;28;20460;-72
2021/03/07 00:38:32;;;;;;;7.63;6.85;;;;;;;;;;5061131;28;20844;-72
2021/03/07 00:40:58;;;;;;;8.23;7.25;;;;;;;;;;5062749;28;20234;-72
2021/03/07 00:43:24;;;;;;;9.13;6.23;;;;;;;;;;5036243;28;20209;-72
2021/03/07 00:45:50;;;;;;;7.83;7.03;;;;;;;;;;5057164;28;20444;-72
2021/03/07 00:48:16;;;;;;;7.37;6.43;;;;;;;;;;5052173;28;20816;-71
2021/03/07 00:50:42;;;;;;;8.43;6.67;;;;;;;;;;5061468;28;20413;-72
2021/03/07 00:53:08;;;;;;;12.07;7.35;;;;;;;;;;5060614;28;20794;-72
2021/03/07 00:55:34;;;;;;;6.27;5.67;;;;;;;;;;5061057;28;20189;-72
2021/03/07 00:58:00;;;;;;;9.00;7.07;;;;;;;;;;5051253;28;20937;-71
2021/03/07 01:00:28;;;;;;;8.70;6.90;;;;;;;;;;5061169;28;20431;-72
2021/03/07 01:02:55;;;;;;;9.60;6.68;;;;;;;;;;5052322;28;20551;-72
2021/03/07 01:05:22;;;;;;;7.03;6.43;;;;;;;;;;5039330;28;20546;-72
2021/03/07 01:07:48;;;;;;;7.78;6.90;;;;;;;;;;5060358;28;20630;-72
2021/03/07 01:10:16;;;;;;;27.13;8.18;;;;;;;;;;5060133;28;20213;-72
2021/03/07 01:12:42;;;;;;;8.05;7.30;;;;;;;;;;5042601;28;20188;-72
2021/03/07 01:15:09;;;;;;;10.45;6.80;;;;;;;;;;5051418;28;20221;-72
2021/03/07 01:17:35;;;;;;;9.07;7.35;;;;;;;;;;5061001;28;20262;-72
2021/03/07 01:20:02;;;;;;;9.57;7.53;;;;;;;;;;5053009;28;20216;-72
2021/03/07 01:22:28;;;;;;;9.40;7.43;;;;;;;;;;5066485;28;20611;-72
2021/03/07 01:24:54;;;;;;;7.97;6.80;;;;;;;;;;5054543;28;20232;-72
2021/03/07 01:27:20;;;;;;;8.98;7.20;;;;;;;;;;5052957;28;20233;-72
2021/03/07 01:29:46;;;;;;;8.98;8.07;;;;;;;;;;5057022;28;20654;-72
2021/03/07 01:32:12;;;;;;;8.48;7.50;;;;;;;;;;5064325;28;20169;-72
2021/03/07 01:34:38;;;;;;;11.38;9.88;;;;;;;;;;5059060;28;20176;-72
2021/03/07 01:37:04;;;;;;;9.88;8.52;;;;;;;;;;5057932;28;20204;-72
2021/03/07 01:39:30;;;;;;;8.15;7.35;;;;;;;;;;5054037;28;20181;-72
2021/03/07 01:41:56;;;;;;;10.38;9.07;;;;;;;;;;5033855;28;20189;-72
2021/03/07 01:44:22;;;;;;;9.52;8.52;;;;;;;;;;5034151;28;20209;-72
2021/03/07 01:46:48;;;;;;;9.98;8.65;;;;;;;;;;5057227;28;20222;-72
2021/03/07 01:49:14;;;;;;;10.88;8.77;;;;;;;;;;5060200;28;20173;-72
2021/03/07 01:51:40;;;;;;;9.45;8.30;;;;;;;;;;5053624;28;20185;-72
2021/03/07 01:54:06;;;;;;;13.50;9.07;;;;;;;;;;5056804;28;20182;-72
2021/03/07 01:56:33;;;;;;;9.48;8.50;;;;;;;;;;5055348;28;20205;-72
2021/03/07 01:59:01;;;;;;;14.63;8.50;;;;;;;;;;5051288;28;20255;-72
2021/03/07 02:01:27;;;;;;;18.60;9.48;;;;;;;;;;5036812;28;21735;-72
2021/03/07 02:03:53;;;;;;;10.07;8.98;;;;;;;;;;5056210;28;20664;-72
2021/03/07 02:06:20;;;;;;;13.95;10.38;;;;;;;;;;5056557;28;20196;-72
2021/03/07 02:08:47;;;;;;;12.55;10.52;;;;;;;;;;5067747;28;20677;-72
2021/03/07 02:11:13;;;;;;;9.68;8.38;;;;;;;;;;5057725;28;20275;-72
2021/03/07 02:13:40;;;;;;;9.05;8.15;;;;;;;;;;5053955;28;20215;-72
2021/03/07 02:16:11;;;;;;;9.60;8.55;;;;;;;;;;5055894;28;20186;-72
2021/03/07 02:18:38;;;;;;;11.18;9.30;;;;;;;;;;5060933;28;20275;-72
2021/03/07 02:21:06;;;;;;;14.60;9.88;;;;;;;;;;5058574;28;20247;-72
2021/03/07 02:23:40;;;;;;;11.38;9.07;;;;;;;;;;5035087;28;20209;-72
2021/03/07 02:26:06;;;;;;;9.52;8.57;;;;;;;;;;5054070;28;20231;-72
2021/03/07 02:28:32;;;;;;;11.65;8.73;;;;;;;;;;5057124;28;20235;-72
2021/03/07 02:30:58;;;;;;;11.48;9.10;;;;;;;;;;5059328;28;20177;-72
2021/03/07 02:33:35;;;;;;;11.27;9.40;;;;;;;;;;5058527;28;20185;-72
2021/03/07 02:36:06;;;;;;;11.43;8.85;;;;;;;;;;5062868;28;20272;-72
2021/03/07 02:38:33;;;;;;;9.45;7.68;;;;;;;;;;5068120;28;20207;-72
2021/03/07 02:41:00;;;;;;;8.75;7.93;;;;;;;;;;5048819;28;20193;-72
2021/03/07 02:43:27;;;;;;;9.70;8.15;;;;;;;;;;5048392;28;20239;-73
2021/03/07 02:45:55;;;;;;;11.23;8.88;;;;;;;;;;5054633;28;20219;-72
2021/03/07 02:48:22;;;;;;;17.63;9.63;;;;;;;;;;5059916;28;20225;-73
2021/03/07 02:50:49;;;;;;;9.15;8.23;;;;;;;;;;5037618;28;20176;-72
2021/03/07 02:53:17;;;;;;;8.95;8.05;;;;;;;;;;5058473;28;20185;-72
2021/03/07 02:55:45;;;;;;;10.55;9.45;;;;;;;;;;5058627;28;20656;-72
2021/03/07 02:58:13;;;;;;;10.25;8.15;;;;;;;;;;5045345;28;20218;-72
2021/03/07 03:00:49;;;;;;;13.50;9.60;;;;;;;;;;5050840;28;20204;-72
2021/03/07 03:03:15;;;;;;;11.30;8.30;;;;;;;;;;5050833;28;20212;-72
2021/03/07 03:05:42;;;;;;;11.38;8.82;;;;;;;;;;5056263;28;20556;-72
2021/03/07 03:08:08;;;;;;;12.43;8.20;;;;;;;;;;5064533;28;20683;-72
2021/03/07 03:10:35;;;;;;;9.93;8.90;;;;;;;;;;5061116;28;20185;-72
2021/03/07 03:13:03;;;;;;;10.93;9.88;;;;;;;;;;5054475;28;20185;-73
2021/03/07 03:15:29;;;;;;;9.75;8.75;;;;;;;;;;5051236;28;20177;-72
2021/03/07 03:17:55;;;;;;;8.65;7.85;;;;;;;;;;5050690;28;21164;-72
2021/03/07 03:20:22;;;;;;;10.80;8.32;;;;;;;;;;5045475;28;20188;-72
2021/03/07 03:22:48;;;;;;;10.65;8.82;;;;;;;;;;5049509;28;20281;-72
2021/03/07 03:25:15;;;;;;;11.15;9.85;;;;;;;;;;5052388;28;20239;-73
2021/03/07 03:27:41;;;;;;;9.38;8.45;;;;;;;;;;5051796;28;20212;-72
2021/03/07 03:30:15;;;;;;;11.00;8.50;;;;;;;;;;5053321;28;20185;-72
2021/03/07 03:32:41;;;;;;;9.73;8.80;;;;;;;;;;5055161;28;20776;-72
2021/03/07 03:35:09;;;;;;;9.52;8.60;;;;;;;;;;5060614;28;20181;-73
2021/03/07 03:37:36;;;;;;;10.07;8.23;;;;;;;;;;5059964;28;20582;-72
2021/03/07 03:40:03;;;;;;;11.57;8.60;;;;;;;;;;5049569;28;20653;-72
2021/03/07 03:42:30;;;;;;;8.65;7.75;;;;;;;;;;5053597;28;20219;-72
2021/03/07 03:44:58;;;;;;;13.35;8.70;;;;;;;;;;5061124;28;20551;-72
2021/03/07 03:47:24;;;;;;;9.18;8.18;;;;;;;;;;5058553;28;20220;-73
2021/03/07 03:49:54;;;;;;;11.15;8.82;;;;;;;;;;5063214;28;20195;-72
2021/03/07 03:52:22;;;;;;;12.45;10.48;;;;;;;;;;5065683;28;20181;-72
2021/03/07 03:54:56;;;;;;;9.73;8.73;;;;;;;;;;5060389;28;20173;-73
2021/03/07 03:57:26;;;;;;;9.90;8.60;;;;;;;;;;5052444;28;20326;-73
2021/03/07 03:59:52;;;;;;;12.60;9.30;;;;;;;;;;5050741;28;20184;-73
2021/03/07 04:02:19;;;;;;;10.90;9.30;;;;;;;;;;5068758;28;20268;-73
2021/03/07 04:04:45;;;;;;;17.75;8.85;;;;;;;;;;5064946;28;20652;-72
2021/03/07 04:07:12;;;;;;;12.25;9.27;;;;;;;;;;5061676;28;20288;-72
2021/03/07 04:09:39;;;;;;;9.43;8.45;;;;;;;;;;5053890;28;20652;-72
2021/03/07 04:12:05;;;;;;;10.43;8.20;;;;;;;;;;5052671;28;20217;-73
2021/03/07 04:14:32;;;;;;;9.43;8.43;;;;;;;;;;5050445;28;20432;-73
2021/03/07 04:17:02;;;;;;;12.80;10.75;;;;;;;;;;5057986;28;20178;-73
2021/03/07 04:19:28;;;;;;;10.90;8.93;;;;;;;;;;5063389;28;20265;-72
2021/03/07 04:21:54;;;;;;;8.68;7.88;;;;;;;;;;5043811;28;20320;-72
2021/03/07 04:24:20;;;;;;;10.32;8.90;;;;;;;;;;5052608;28;20258;-73
2021/03/07 04:26:47;;;;;;;9.18;8.27;;;;;;;;;;5055157;28;20178;-72
2021/03/07 04:29:13;;;;;;;10.15;9.15;;;;;;;;;;5050280;28;20205;-73
2021/03/07 04:31:39;;;;;;;9.82;8.93;;;;;;;;;;5035681;28;20185;-72
2021/03/07 04:34:06;;;;;;;9.77;7.95;;;;;;;;;;5063126;28;20736;-72
2021/03/07 04:36:32;;;;;;;10.57;8.20;;;;;;;;;;5067668;28;20644;-73
2021/03/07 04:38:58;;;;;;;10.05;8.90;;;;;;;;;;5061753;28;20210;-72
2021/03/07 04:41:24;;;;;;;8.88;8.07;;;;;;;;;;5059473;28;20205;-72
2021/03/07 04:43:51;;;;;;;10.98;9.52;;;;;;;;;;5048335;28;20186;-72
2021/03/07 04:46:18;;;;;;;11.10;9.30;;;;;;;;;;5060736;28;20181;-72
2021/03/07 04:48:44;;;;;;;9.00;8.10;;;;;;;;;;5060096;28;20205;-73
2021/03/07 04:51:10;;;;;;;9.25;7.85;;;;;;;;;;5051334;28;20193;-73
2021/03/07 04:53:36;;;;;;;9.45;7.75;;;;;;;;;;5057223;28;20197;-73
2021/03/07 04:56:02;;;;;;;10.82;8.65;;;;;;;;;;5065418;28;20547;-72
2021/03/07 04:58:28;;;;;;;12.02;10.45;;;;;;;;;;5051733;28;20209;-73
2021/03/07 05:00:54;;;;;;;9.98;8.60;;;;;;;;;;5059035;28;20196;-72
2021/03/07 05:03:20;;;;;;;8.60;7.80;;;;;;;;;;5059441;28;20177;-72
2021/03/07 05:05:48;;;;;;;14.00;9.85;;;;;;;;;;5061456;28;20186;-72
2021/03/07 05:08:14;;;;;;;9.85;8.10;;;;;;;;;;5058749;28;20228;-72
2021/03/07 05:10:40;;;;;;;11.50;8.57;;;;;;;;;;5054819;28;20652;-72
2021/03/07 05:13:06;;;;;;;9.43;8.50;;;;;;;;;;5055200;28;20214;-72
2021/03/07 05:15:32;;;;;;;9.02;7.82;;;;;;;;;;5060828;28;20255;-72
2021/03/07 05:17:58;;;;;;;8.80;8.00;;;;;;;;;;5051935;28;20296;-73
2021/03/07 05:20:24;;;;;;;13.23;8.38;;;;;;;;;;5066124;28;20762;-72
2021/03/07 05:22:51;;;;;;;12.30;9.77;;;;;;;;;;5052065;28;20185;-72
2021/03/07 05:25:17;;;;;;;9.93;8.65;;;;;;;;;;5055979;28;20210;-72
2021/03/07 05:27:43;;;;;;;10.85;9.50;;;;;;;;;;5052047;28;20697;-72
2021/03/07 05:30:10;;;;;;;13.52;11.18;;;;;;;;;;5057459;28;20181;-72
2021/03/07 05:32:36;;;;;;;9.40;8.48;;;;;;;;;;5044884;28;20618;-72
2021/03/07 05:35:02;;;;;;;15.80;11.25;;;;;;;;;;5061459;28;20181;-72
2021/03/07 05:37:28;;;;;;;13.90;11.07;;;;;;;;;;5055318;28;20193;-72
2021/03/07 05:39:54;;;;;;;11.88;9.48;;;;;;;;;;5051848;28;20264;-72
2021/03/07 05:42:20;;;;;;;9.13;8.25;;;;;;;;;;5054054;28;20169;-72
2021/03/07 05:44:46;;;;;;;12.00;9.18;;;;;;;;;;5046474;28;20181;-73
2021/03/07 05:47:12;;;;;;;9.38;8.48;;;;;;;;;;5057199;28;20688;-69
2021/03/07 05:49:40;;;;;;;11.43;10.15;;;;;;;;;;5062294;28;20242;-69
2021/03/07 05:52:07;;;;;;;16.40;9.75;;;;;;;;;;5064367;28;20181;-70
2021/03/07 05:54:33;;;;;;;10.05;8.63;;;;;;;;;;5059738;28;20341;-69
2021/03/07 05:57:00;;;;;;;12.43;9.73;;;;;;;;;;5057857;28;20188;-70
2021/03/07 05:59:27;;;;;;;9.95;7.78;;;;;;;;;;5049943;28;20204;-69
2021/03/07 06:01:53;;;;;;;31.70;9.60;;;;;;;;;;5052706;28;20239;-69
2021/03/07 06:04:19;;;;;;;9.57;8.68;;;;;;;;;;5051789;28;20185;-69
2021/03/07 06:06:45;;;;;;;9.98;8.25;;;;;;;;;;5064655;28;20196;-69
2021/03/07 06:09:17;;;;;;;11.65;9.85;;;;;;;;;;5050773;28;20321;-69
2021/03/07 06:11:44;;;;;;;9.38;8.48;;;;;;;;;;5058563;28;20181;-69
2021/03/07 06:14:20;;;;;;;9.43;8.02;;;;;;;;;;5047027;28;20240;-70
2021/03/07 06:16:59;;;;;;;10.43;8.90;;;;;;;;;;5042177;28;20656;-69
2021/03/07 06:19:25;;;;;;;13.38;9.27;;;;;;;;;;5059412;28;20181;-69
2021/03/07 06:21:52;;;;;;;21.00;9.13;;;;;;;;;;5061470;28;20261;-69
2021/03/07 06:24:37;;;;;;;11.65;9.00;;;;;;;;;;5056034;28;20728;-69
2021/03/07 06:27:08;;;;;;;12.13;8.55;;;;;;;;;;5058486;28;20699;-68
2021/03/07 06:29:36;;;;;;;10.32;9.32;;;;;;;;;;5058396;28;20189;-69
2021/03/07 06:32:15;;;;;;;9.80;8.18;;;;;;;;;;5050863;28;20775;-69
2021/03/07 06:34:44;;;;;;;14.00;9.80;;;;;;;;;;5050899;28;20189;-69
2021/03/07 06:37:10;;;;;;;9.52;8.35;;;;;;;;;;5051388;28;20259;-70
2021/03/07 06:39:36;;;;;;;13.07;8.80;;;;;;;;;;5054840;28;20180;-70
2021/03/07 06:42:06;;;;;;;9.30;8.35;;;;;;;;;;5058558;28;20181;-69
2021/03/07 06:44:32;;;;;;;9.85;8.75;;;;;;;;;;5070662;28;20184;-69
2021/03/07 06:47:11;;;;;;;10.02;9.02;;;;;;;;;;5071639;28;20205;-69
2021/03/07 06:49:38;;;;;;;10.57;9.30;;;;;;;;;;5067153;28;20181;-69
2021/03/07 06:52:17;;;;;;;20.48;9.82;;;;;;;;;;5051030;28;20242;-69
2021/03/07 06:54:44;;;;;;;10.77;9.73;;;;;;;;;;5054755;28;20172;-70
2021/03/07 06:57:11;;;;;;;14.82;10.45;;;;;;;;;;5071503;28;20204;-69
2021/03/07 06:59:37;;;;;;;14.27;9.75;;;;;;;;;;5054652;28;20185;-69
2021/03/07 07:02:10;;;;;;;13.50;8.63;;;;;;;;;;5050650;28;20648;-69
2021/03/07 07:04:40;;;;;;;11.52;9.75;;;;;;;;;;5067391;28;20180;-69
2021/03/07 07:07:13;;;;;;;11.15;9.32;;;;;;;;;;5063497;28;20906;-70
2021/03/07 07:09:43;;;;;;;12.45;9.20;;;;;;;;;;5051583;28;20181;-70
2021/03/07 07:12:18;;;;;;;11.38;10.15;;;;;;;;;;5055302;28;20181;-69
2021/03/07 07:14:44;;;;;;;14.75;9.70;;;;;;;;;;5055479;28;20589;-69
2021/03/07 07:17:12;;;;;;;13.60;10.15;;;;;;;;;;5055093;28;20197;-69
2021/03/07 07:19:39;;;;;;;15.93;10.45;;;;;;;;;;5055604;28;20180;-69
2021/03/07 07:22:09;;;;;;;16.45;10.70;;;;;;;;;;5055166;28;20188;-69
2021/03/07 07:24:35;;;;;;;16.92;9.65;;;;;;;;;;5055283;28;20180;-69
2021/03/07 07:27:02;;;;;;;14.68;11.25;;;;;;;;;;5062939;28;20181;-69
2021/03/07 07:29:28;;;;;;;12.68;10.15;;;;;;;;;;5057100;28;20197;-69
2021/03/07 07:32:16;;;;;;;13.40;11.70;;;;;;;;;;5054802;28;20185;-70
2021/03/07 07:34:45;;;;;;;16.73;10.27;;;;;;;;;;5056533;28;20220;-70
2021/03/07 07:37:20;;;;;;;15.00;11.85;;;;;;;;;;5066229;28;20196;-70
2021/03/07 07:39:52;;;;;;;13.23;11.85;;;;;;;;;;5070258;28;20177;-69
2021/03/07 07:42:26;;;;;;;14.75;11.35;;;;;;;;;;5054526;28;20188;-69
2021/03/07 07:44:53;;;;;;;13.52;12.13;;;;;;;;;;5054984;28;20176;-69
2021/03/07 07:47:19;;;;;;;17.33;14.25;;;;;;;;;;5054706;28;20707;-69
2021/03/07 07:49:54;;;;;;;19.75;13.02;;;;;;;;;;5054255;28;20178;-69
2021/03/07 07:52:26;;;;;;;21.17;13.15;;;;;;;;;;5053875;28;20204;-69
2021/03/07 07:54:58;;;;;;;14.93;10.68;;;;;;;;;;5054700;28;20169;-69
2021/03/07 07:57:34;;;;;;;13.07;11.70;;;;;;;;;;5053724;28;20588;-69
2021/03/07 08:00:12;;;;;;;17.45;12.27;;;;;;;;;;5054725;28;20716;-69
2021/03/07 08:02:45;;;;;;;19.45;14.15;;;;;;;;;;5054496;28;20181;-69
2021/03/07 08:05:24;;;;;;;16.30;13.65;;;;;;;;;;5062224;28;20187;-69
2021/03/07 08:07:57;;;;;;;16.20;13.38;;;;;;;;;;5063450;28;20236;-69
2021/03/07 08:10:49;;;;;;;15.88;13.98;;;;;;;;;;5062969;28;20542;-69
2021/03/07 08:13:17;;;;;;;16.73;13.68;;;;;;;;;;5050564;28;20221;-69
2021/03/07 08:15:47;;;;;;;17.83;14.85;;;;;;;;;;5054629;28;20169;-69
2021/03/07 08:18:17;;;;;;;16.38;14.30;;;;;;;;;;5054347;28;20610;-69
2021/03/07 08:20:44;;;;;;;15.90;14.07;;;;;;;;;;5053500;28;20173;-69
2021/03/07 08:23:16;;;;;;;16.45;14.73;;;;;;;;;;5052173;28;20273;-70
2021/03/07 08:25:52;;;;;;;15.25;13.23;;;;;;;;;;5053631;28;20174;-69
2021/03/07 08:28:30;;;;;;;17.20;15.60;;;;;;;;;;5052269;28;20204;-69
2021/03/07 08:30:56;;;;;;;17.38;14.85;;;;;;;;;;5053882;28;20223;-70
2021/03/07 08:33:23;;;;;;;16.33;14.03;;;;;;;;;;5053839;28;20205;-69
2021/03/07 08:36:07;;;;;;;15.18;12.50;;;;;;;;;;5059217;28;20459;-70
2021/03/07 08:38:33;;;;;;;15.77;14.18;;;;;;;;;;5054553;28;20251;-69
2021/03/07 08:40:59;;;;;;;17.85;13.60;;;;;;;;;;5054030;28;20196;-70
2021/03/07 08:43:25;;;;;;;14.80;13.38;;;;;;;;;;5053189;28;20184;-70
2021/03/07 08:46:04;;;;;;;15.18;13.48;;;;;;;;;;5051106;28;20209;-70
2021/03/07 08:48:31;;;;;;;14.32;12.93;;;;;;;;;;5034879;28;20668;-70
2021/03/07 08:50:57;;;;;;;16.90;12.75;;;;;;;;;;5053176;28;20177;-71
2021/03/07 08:53:24;;;;;;;13.38;12.05;;;;;;;;;;5053379;28;20716;-69
2021/03/07 08:55:50;;;;;;;15.00;13.43;;;;;;;;;;5053111;28;20202;-70
2021/03/07 08:58:17;;;;;;;18.90;13.93;;;;;;;;;;5066518;28;20706;-69
2021/03/07 09:00:47;;;;;;;14.75;12.43;;;;;;;;;;5051979;28;20220;-70
2021/03/07 09:03:16;;;;;;;14.13;12.70;;;;;;;;;;5039497;28;20227;-70
2021/03/07 09:05:42;;;;;;;16.67;12.48;;;;;;;;;;5035009;28;20277;-70
2021/03/07 09:08:08;;;;;;;16.13;13.75;;;;;;;;;;5053024;28;20217;-69
2021/03/07 09:10:36;;;;;;;16.88;13.05;;;;;;;;;;5072753;28;20177;-69
2021/03/07 09:13:12;;;;;;;13.13;11.73;;;;;;;;;;5042089;28;20573;-70
2021/03/07 09:15:39;;;;;;;14.73;13.02;;;;;;;;;;5035220;28;20910;-69
2021/03/07 09:18:06;;;;;;;14.13;12.45;;;;;;;;;;5053241;28;20768;-69
2021/03/07 09:20:39;;;;;;;14.20;12.68;;;;;;;;;;5052373;28;20181;-71
2021/03/07 09:23:06;;;;;;;16.88;12.43;;;;;;;;;;5052832;28;20331;-70
2021/03/07 09:25:32;;;;;;;13.45;12.18;;;;;;;;;;5052183;28;20896;-70
2021/03/07 09:27:58;;;;;;;16.38;11.95;;;;;;;;;;5052658;28;20243;-69
2021/03/07 09:30:24;;;;;;;11.85;9.63;;;;;;;;;;5052653;28;20239;-69
2021/03/07 09:32:50;;;;;;;13.80;11.75;;;;;;;;;;5051788;28;20750;-70
2021/03/07 09:35:20;;;;;;;11.77;10.63;;;;;;;;;;5052771;28;20668;-70
2021/03/07 09:37:56;;;;;;;12.27;10.13;;;;;;;;;;5064355;28;20189;-70
2021/03/07 09:40:22;;;;;;;11.38;10.27;;;;;;;;;;5072765;28;20181;-70
2021/03/07 09:42:55;;;;;;;12.75;11.40;;;;;;;;;;5058616;28;20553;-69
2021/03/07 09:45:21;;;;;;;16.30;10.40;;;;;;;;;;5052592;28;20185;-69
2021/03/07 09:47:47;;;;;;;11.27;10.07;;;;;;;;;;5052772;28;20619;-69
2021/03/07 09:50:14;;;;;;;12.55;11.30;;;;;;;;;;5052257;28;20269;-70
2021/03/07 09:52:40;;;;;;;16.63;12.25;;;;;;;;;;5051975;28;20561;-70
2021/03/07 09:55:06;;;;;;;14.90;11.45;;;;;;;;;;5052751;28;20176;-71
2021/03/07 09:57:32;;;;;;;12.90;11.60;;;;;;;;;;5052326;28;20213;-70
2021/03/07 09:59:58;;;;;;;14.00;12.45;;;;;;;;;;5052513;28;20178;-70
2021/03/07 10:02:33;;;;;;;13.17;11.97;;;;;;;;;;5052399;28;20180;-70
2021/03/07 10:05:09;;;;;;;11.73;10.27;;;;;;;;;;5052405;28;20481;-71
2021/03/07 10:07:35;;;;;;;12.57;10.23;;;;;;;;;;5062772;28;20188;-70
2021/03/07 10:10:07;;;;;;;10.25;9.25;;;;;;;;;;5066046;28;20191;-70
2021/03/07 10:12:39;;;;;;;10.15;7.57;;;;;;;;;;5051914;28;20169;-70
2021/03/07 10:15:06;;;;;;;11.15;10.35;;;;;;;;;;5052236;28;20173;-70
2021/03/07 10:17:36;;;;;;;10.55;9.20;;;;;;;;;;5052178;28;20584;-70
2021/03/07 10:20:06;;;;;;;10.40;9.40;;;;;;;;;;5051864;28;20239;-70
2021/03/07 10:22:40;;;;;;;12.25;8.95;;;;;;;;;;5051488;28;20169;-71
2021/03/07 10:25:07;;;;;;;9.85;8.85;;;;;;;;;;5052099;28;20181;-70
2021/03/07 10:27:33;;;;;;;9.60;8.70;;;;;;;;;;5051896;28;20200;-71
2021/03/07 10:29:59;;;;;;;10.40;8.93;;;;;;;;;;5051956;28;20169;-70
2021/03/07 10:32:25;;;;;;;11.43;9.70;;;;;;;;;;5051427;28;20165;-70
2021/03/07 10:34:53;;;;;;;14.05;12.50;;;;;;;;;;5051822;28;20174;-70
2021/03/07 10:37:42;;;;;;;10.48;9.50;;;;;;;;;;5060047;28;20201;-70
2021/03/07 10:40:12;;;;;;;11.23;10.23;;;;;;;;;;5060505;28;20177;-70
2021/03/07 10:42:42;;;;;;;11.77;10.77;;;;;;;;;;5051234;28;20192;-70
2021/03/07 10:45:15;;;;;;;12.30;11.00;;;;;;;;;;5050895;28;20181;-70
2021/03/07 10:47:41;;;;;;;12.52;11.30;;;;;;;;;;5034595;28;20209;-70
2021/03/07 10:50:07;;;;;;;12.98;11.23;;;;;;;;;;5051586;28;20634;-70
2021/03/07 10:52:33;;;;;;;10.10;9.02;;;;;;;;;;5050467;28;20227;-71
2021/03/07 10:54:59;;;;;;;12.10;10.20;;;;;;;;;;5051677;28;20174;-71
2021/03/07 10:57:25;;;;;;;11.90;10.70;;;;;;;;;;5051472;28;20677;-71
2021/03/07 10:59:52;;;;;;;10.80;9.67;;;;;;;;;;5051961;28;20495;-71
2021/03/07 11:02:18;;;;;;;10.63;9.27;;;;;;;;;;5050969;28;20973;-71
2021/03/07 11:04:48;;;;;;;9.90;9.02;;;;;;;;;;5051466;28;20234;-71
2021/03/07 11:07:14;;;;;;;9.32;8.48;;;;;;;;;;5041116;28;20213;-71
2021/03/07 11:09:40;;;;;;;9.18;8.38;;;;;;;;;;5031664;28;20174;-71
2021/03/07 11:12:09;;;;;;;10.13;9.10;;;;;;;;;;5031361;28;20196;-71
2021/03/07 11:14:35;;;;;;;11.90;9.40;;;;;;;;;;5013933;28;20438;-70
2021/03/07 11:17:01;;;;;;;9.57;8.47;;;;;;;;;;5031544;28;20866;-71
2021/03/07 11:19:27;;;;;;;9.33;8.70;;;;;;;;;;5033943;28;20376;-71
2021/03/07 11:21:53;;;;;;;9.13;8.33;;;;;;;;;;5050673;28;20456;-70
2021/03/07 11:24:19;;;;;;;9.00;8.30;;;;;;;;;;5051454;28;20402;-70
2021/03/07 11:26:45;;;;;;;9.00;8.10;;;;;;;;;;5051595;28;20443;-70
2021/03/07 11:29:11;;;;;;;7.97;7.37;;;;;;;;;;5057993;28;20816;-70
2021/03/07 11:31:37;;;;;;;8.40;7.80;;;;;;;;;;5053709;28;20421;-71
2021/03/07 11:34:03;;;;;;;8.27;7.57;;;;;;;;;;5051156;28;20457;-71
2021/03/07 11:36:29;;;;;;;7.57;6.97;;;;;;;;;;5050984;28;20457;-71
2021/03/07 11:38:55;;;;;;;9.97;9.07;;;;;;;;;;5050693;28;20442;-70
2021/03/07 11:41:21;;;;;;;8.43;7.73;;;;;;;;;;5055181;28;20441;-70
2021/03/07 11:43:47;;;;;;;9.07;8.33;;;;;;;;;;5050248;28;20455;-72
2021/03/07 11:46:13;;;;;;;9.60;8.60;;;;;;;;;;5051111;28;20948;-71
2021/03/07 11:48:39;;;;;;;9.47;8.57;;;;;;;;;;5051009;28;20878;-70
2021/03/07 11:51:05;;;;;;;10.30;9.30;;;;;;;;;;5050494;28;20572;-71
2021/03/07 11:53:31;;;;;;;9.20;8.50;;;;;;;;;;5050687;28;20455;-72
2021/03/07 11:55:57;;;;;;;9.30;8.27;;;;;;;;;;5051053;28;20416;-72
2021/03/07 11:58:24;;;;;;;8.77;7.97;;;;;;;;;;5055086;28;20457;-71
2021/03/07 12:00:50;;;;;;;8.80;8.10;;;;;;;;;;5066475;28;20411;-72
2021/03/07 12:03:15;;;;;;;9.70;7.80;;;;;;;;;;5074490;28;20414;-72
2021/03/07 12:05:41;;;;;;;8.17;7.47;;;;;;;;;;5074598;28;20407;-72
2021/03/07 12:08:07;;;;;;;7.33;6.70;;;;;;;;;;5054636;28;20452;-73
2021/03/07 12:10:33;;;;;;;8.60;7.60;;;;;;;;;;5054436;28;20472;-72
2021/03/07 12:12:59;;;;;;;7.50;6.90;;;;;;;;;;5053669;28;20452;-71
2021/03/07 12:15:25;;;;;;;7.90;7.20;;;;;;;;;;5053976;28;20484;-72
2021/03/07 12:17:51;;;;;;;7.73;7.03;;;;;;;;;;5054109;28;20471;-72
2021/03/07 12:20:17;;;;;;;8.17;7.40;;;;;;;;;;5054494;28;20768;-72
2021/03/07 12:22:46;;;;;;;7.70;7.00;;;;;;;;;;5053794;28;20438;-72
2021/03/07 12:25:12;;;;;;;7.47;6.73;;;;;;;;;;5053966;28;20444;-73
2021/03/07 12:27:38;;;;;;;7.87;7.07;;;;;;;;;;5053707;28;20434;-72
2021/03/07 12:30:06;;;;;;;7.57;6.87;;;;;;;;;;5062054;28;20755;-71
2021/03/07 12:32:32;;;;;;;8.10;7.30;;;;;;;;;;5053352;28;20792;-73
2021/03/07 12:34:57;;;;;;;9.00;7.83;;;;;;;;;;5052664;28;20417;-72
2021/03/07 12:37:23;;;;;;;8.90;7.97;;;;;;;;;;5046892;28;20450;-72
2021/03/07 12:39:49;;;;;;;7.57;6.90;;;;;;;;;;5054911;28;20434;-72
2021/03/07 12:42:15;;;;;;;9.10;8.17;;;;;;;;;;5029845;28;20442;-72
2021/03/07 12:44:41;;;;;;;7.70;7.00;;;;;;;;;;5073667;28;20409;-72
2021/03/07 12:47:07;;;;;;;9.57;8.73;;;;;;;;;;5053360;28;20493;-72
2021/03/07 12:49:34;;;;;;;7.67;7.03;;;;;;;;;;5053101;28;20424;-72
2021/03/07 12:52:00;;;;;;;8.20;7.40;;;;;;;;;;5053153;28;20516;-70
2021/03/07 12:54:26;;;;;;;7.67;7.07;;;;;;;;;;5053626;28;20892;-71
2021/03/07 12:56:52;;;;;;;7.83;7.13;;;;;;;;;;5053527;28;20924;-70
2021/03/07 12:59:18;;;;;;;8.07;7.47;;;;;;;;;;5053156;28;20442;-70
2021/03/07 13:01:44;;;;;;;9.07;8.20;;;;;;;;;;5066589;28;20887;-70
2021/03/07 13:04:10;;;;;;;8.40;7.70;;;;;;;;;;5044495;28;20968;-70
2021/03/07 13:06:36;;;;;;;7.80;7.20;;;;;;;;;;5056816;28;20434;-70
2021/03/07 13:09:02;;;;;;;8.30;7.70;;;;;;;;;;5072504;28;21012;-70
2021/03/07 13:11:28;;;;;;;8.40;7.70;;;;;;;;;;5072741;28;20408;-69
2021/03/07 13:13:54;;;;;;;9.80;8.87;;;;;;;;;;5052376;28;20516;-70
2021/03/07 13:16:20;;;;;;;8.03;7.33;;;;;;;;;;5053150;28;20919;-70
2021/03/07 13:18:46;;;;;;;8.17;7.57;;;;;;;;;;5071496;28;20484;-70
2021/03/07 13:21:12;;;;;;;10.57;8.03;;;;;;;;;;5058628;28;20531;-69
2021/03/07 13:23:38;;;;;;;7.90;7.20;;;;;;;;;;5052052;28;20439;-69
2021/03/07 13:26:04;;;;;;;8.97;8.27;;;;;;;;;;5047103;28;20886;-69
2021/03/07 13:28:30;;;;;;;9.10;8.30;;;;;;;;;;5048898;28;20963;-69
2021/03/07 13:30:56;;;;;;;9.03;8.33;;;;;;;;;;5065079;28;20936;-69
2021/03/07 13:33:22;;;;;;;10.30;9.53;;;;;;;;;;5052519;28;20489;-71
2021/03/07 13:35:48;;;;;;;9.30;8.37;;;;;;;;;;5034883;28;20403;-71
2021/03/07 13:38:14;;;;;;;10.13;9.23;;;;;;;;;;5052600;28;20446;-72
2021/03/07 13:40:40;;;;;;;9.13;8.33;;;;;;;;;;5051903;28;20456;-72
2021/03/07 13:43:06;;;;;;;9.10;8.30;;;;;;;;;;5060500;28;20414;-72
2021/03/07 13:45:33;;;;;;;8.73;7.93;;;;;;;;;;5062588;28;20425;-71
2021/03/07 13:47:59;;;;;;;8.30;7.70;;;;;;;;;;5051891;28;20470;-72
2021/03/07 13:50:26;;;;;;;9.10;8.20;;;;;;;;;;5052522;28;20423;-73
2021/03/07 13:52:52;;;;;;;9.23;8.53;;;;;;;;;;5052237;28;20801;-73
2021/03/07 13:55:19;;;;;;;8.40;7.80;;;;;;;;;;5052423;28;20431;-72
2021/03/07 13:57:45;;;;;;;8.50;7.80;;;;;;;;;;5052015;28;20497;-72
2021/03/07 14:00:12;;;;;;;8.73;8.03;;;;;;;;;;5060212;28;20415;-70
2021/03/07 14:02:38;;;;;;;10.20;9.20;;;;;;;;;;5052102;28;20964;-70
2021/03/07 14:05:05;;;;;;;10.10;9.30;;;;;;;;;;5052102;28;20537;-71
2021/03/07 14:07:31;;;;;;;8.77;7.97;;;;;;;;;;5053904;28;20480;-70
2021/03/07 14:09:57;;;;;;;9.20;8.53;;;;;;;;;;5060137;28;20972;-69
2021/03/07 14:12:24;;;;;;;10.03;9.13;;;;;;;;;;5052027;28;20895;-71
2021/03/07 14:14:50;;;;;;;10.10;9.40;;;;;;;;;;5051513;28;20563;-70
2021/03/07 14:17:16;;;;;;;10.07;9.10;;;;;;;;;;5051987;28;20523;-69
2021/03/07 14:19:42;;;;;;;9.07;8.30;;;;;;;;;;5051397;28;20424;-69
2021/03/07 14:22:08;;;;;;;9.93;9.13;;;;;;;;;;5051861;28;20410;-70
2021/03/07 14:24:34;;;;;;;10.40;9.47;;;;;;;;;;5051781;28;20914;-70
2021/03/07 14:27:00;;;;;;;8.60;7.90;;;;;;;;;;5052018;28;20777;-71
2021/03/07 14:29:26;;;;;;;9.37;8.67;;;;;;;;;;5051729;28;20410;-71
2021/03/07 14:31:52;;;;;;;10.43;9.40;;;;;;;;;;5051402;28;20475;-70
2021/03/07 14:34:19;;;;;;;9.90;9.17;;;;;;;;;;5033777;28;20463;-70
2021/03/07 14:36:45;;;;;;;10.40;9.50;;;;;;;;;;5051905;28;20953;-71